createdAt,value
2023-04-09T00:00:07.606Z,23.10
2023-04-09T00:01:07.628Z,23.30
2023-04-09T00:02:07.591Z,23.40
2023-04-09T00:03:07.714Z,25.30
2023-04-09T00:04:07.715Z,24.90
2023-04-09T00:05:07.555Z,27.50
2023-04-09T00:06:07.536Z,26.10
2023-04-09T00:07:07.528Z,25.10
2023-04-09T00:08:07.523Z,24.30
2023-04-09T00:09:07.590Z,24.70
2023-04-09T00:10:07.670Z,23.90
2023-04-09T00:11:07.499Z,23.90
2023-04-09T00:12:07.500Z,25.10
2023-04-09T00:13:07.468Z,24.10
2023-04-09T00:14:07.466Z,23.80
2023-04-09T00:15:09.661Z,23.90
2023-04-09T00:16:07.589Z,25.90
2023-04-09T00:17:07.437Z,26.30
2023-04-09T00:18:07.401Z,24.70
2023-04-09T00:19:07.414Z,25.70
2023-04-09T00:20:07.390Z,22.90
2023-04-09T00:21:07.370Z,23.30
2023-04-09T00:22:07.403Z,23.20
2023-04-09T00:23:07.348Z,22.40
2023-04-09T00:24:07.338Z,24.30
2023-04-09T00:25:07.380Z,22.10
2023-04-09T00:26:07.332Z,22.80
2023-04-09T00:27:07.309Z,26.10
2023-04-09T00:28:07.341Z,25.80
2023-04-09T00:29:07.281Z,25.70
2023-04-09T00:30:07.268Z,26.00
2023-04-09T00:31:07.301Z,30.50
2023-04-09T00:32:07.332Z,31.20
2023-04-09T00:33:08.101Z,34.60
2023-04-09T00:34:07.294Z,38.40
2023-04-09T00:35:07.267Z,40.50
2023-04-09T00:36:07.224Z,40.50
2023-04-09T00:37:07.215Z,39.80
2023-04-09T00:38:07.232Z,39.60
2023-04-09T00:39:07.188Z,35.60
2023-04-09T00:40:07.209Z,38.30
2023-04-09T00:41:07.179Z,39.40
2023-04-09T00:42:07.141Z,37.80
2023-04-09T00:43:07.135Z,38.20
2023-04-09T00:44:07.118Z,39.80
2023-04-09T00:45:07.121Z,36.70
2023-04-09T00:46:07.181Z,35.90
2023-04-09T00:47:07.097Z,35.60
2023-04-09T00:48:07.071Z,35.70
2023-04-09T00:49:07.058Z,31.90
2023-04-09T00:50:07.065Z,35.20
2023-04-09T00:51:07.048Z,36.70
2023-04-09T00:52:07.094Z,35.80
2023-04-09T00:53:07.017Z,34.00
2023-04-09T00:54:06.999Z,33.90
2023-04-09T00:55:07.004Z,38.70
2023-04-09T00:56:06.996Z,34.00
2023-04-09T00:57:06.988Z,33.40
2023-04-09T00:58:07.044Z,32.10
2023-04-09T00:59:06.944Z,35.00
2023-04-09T01:00:06.945Z,35.00
2023-04-09T01:01:07.015Z,34.80
2023-04-09T01:02:06.988Z,32.70
2023-04-09T01:03:07.061Z,33.70
2023-04-09T01:04:06.952Z,31.90
2023-04-09T01:05:06.883Z,31.20
2023-04-09T01:06:06.872Z,29.20
2023-04-09T01:07:06.872Z,28.30
2023-04-09T01:08:06.871Z,28.90
2023-04-09T01:09:06.830Z,30.20
2023-04-09T01:10:06.880Z,28.30
2023-04-09T01:11:06.843Z,29.50
2023-04-09T01:12:06.824Z,30.10
2023-04-09T01:13:06.825Z,28.80
2023-04-09T01:14:06.785Z,28.80
2023-04-09T01:15:06.765Z,29.20
2023-04-09T01:16:06.799Z,27.50
2023-04-09T01:17:06.762Z,29.80
2023-04-09T01:18:06.773Z,34.80
2023-04-09T01:19:06.730Z,29.60
2023-04-09T01:20:06.742Z,30.20
2023-04-09T01:21:06.701Z,29.20
2023-04-09T01:22:06.704Z,27.90
2023-04-09T01:23:06.700Z,27.70
2023-04-09T01:24:06.682Z,26.80
2023-04-09T01:25:06.674Z,26.90
2023-04-09T01:26:06.638Z,26.90
2023-04-09T01:27:06.643Z,26.10
2023-04-09T01:28:06.720Z,26.40
2023-04-09T01:29:06.650Z,28.00
2023-04-09T01:30:06.612Z,26.90
2023-04-09T01:31:06.685Z,26.30
2023-04-09T01:32:06.585Z,27.30
2023-04-09T01:33:06.569Z,25.00
2023-04-09T01:34:06.588Z,25.70
2023-04-09T01:35:06.542Z,24.20
2023-04-09T01:36:06.583Z,25.20
2023-04-09T01:37:06.516Z,25.70
2023-04-09T01:38:06.504Z,25.10
2023-04-09T01:39:06.534Z,24.90
2023-04-09T01:40:06.518Z,26.30
2023-04-09T01:41:06.483Z,26.50
2023-04-09T01:42:06.490Z,25.30
2023-04-09T01:43:06.457Z,25.10
2023-04-09T01:44:06.454Z,25.70
2023-04-09T01:45:06.460Z,24.60
2023-04-09T01:46:06.472Z,25.00
2023-04-09T01:47:06.418Z,25.20
2023-04-09T01:48:06.394Z,26.10
2023-04-09T01:49:06.383Z,25.70
2023-04-09T01:50:06.400Z,27.30
2023-04-09T01:51:06.399Z,25.00
2023-04-09T01:52:06.402Z,24.80
2023-04-09T01:53:06.370Z,29.10
2023-04-09T01:54:06.357Z,29.40
2023-04-09T01:55:06.315Z,31.50
2023-04-09T01:56:06.328Z,33.00
2023-04-09T01:57:06.323Z,32.90
2023-04-09T01:58:06.349Z,33.20
2023-04-09T01:59:06.288Z,33.70
2023-04-09T02:00:06.274Z,28.90
2023-04-09T02:01:06.283Z,28.60
2023-04-09T02:02:06.318Z,27.50
2023-04-09T02:03:06.264Z,28.60
2023-04-09T02:04:06.341Z,27.40
2023-04-09T02:05:06.207Z,31.00
2023-04-09T02:06:06.214Z,31.90
2023-04-09T02:07:06.210Z,32.60
2023-04-09T02:08:06.192Z,31.20
2023-04-09T02:09:06.167Z,34.10
2023-04-09T02:10:06.201Z,31.30
2023-04-09T02:11:06.139Z,34.30
2023-04-09T02:12:06.157Z,36.30
2023-04-09T02:13:06.142Z,34.00
2023-04-09T02:14:06.126Z,30.90
2023-04-09T02:15:06.103Z,33.10
2023-04-09T02:16:06.200Z,31.00
2023-04-09T02:17:06.091Z,39.20
2023-04-09T02:18:06.080Z,36.00
2023-04-09T02:19:06.054Z,34.90
2023-04-09T02:20:06.045Z,38.30
2023-04-09T02:21:06.041Z,38.20
2023-04-09T02:22:06.084Z,34.30
2023-04-09T02:23:06.023Z,35.50
2023-04-09T02:24:06.012Z,35.20
2023-04-09T02:25:06.096Z,34.20
2023-04-09T02:26:05.977Z,34.90
2023-04-09T02:27:05.976Z,34.00
2023-04-09T02:28:05.974Z,29.40
2023-04-09T02:29:06.013Z,30.60
2023-04-09T02:30:05.950Z,29.00
2023-04-09T02:31:05.980Z,26.20
2023-04-09T02:32:05.914Z,27.80
2023-04-09T02:33:05.920Z,28.60
2023-04-09T02:34:05.912Z,26.70
2023-04-09T02:35:05.922Z,28.80
2023-04-09T02:36:05.964Z,26.60
2023-04-09T02:37:05.882Z,24.20
2023-04-09T02:38:05.858Z,24.90
2023-04-09T02:39:05.851Z,25.80
2023-04-09T02:40:05.821Z,24.40
2023-04-09T02:41:05.855Z,24.00
2023-04-09T02:42:05.814Z,23.30
2023-04-09T02:43:05.812Z,26.20
2023-04-09T02:44:05.797Z,25.10
2023-04-09T02:45:05.779Z,25.30
2023-04-09T02:46:05.775Z,29.50
2023-04-09T02:47:05.776Z,30.80
2023-04-09T02:48:06.129Z,28.40
2023-04-09T02:49:05.761Z,29.40
2023-04-09T02:50:05.728Z,30.30
2023-04-09T02:51:05.698Z,26.90
2023-04-09T02:52:05.683Z,26.00
2023-04-09T02:53:05.785Z,31.00
2023-04-09T02:54:05.697Z,26.90
2023-04-09T02:55:05.672Z,30.10
2023-04-09T02:56:05.665Z,29.80
2023-04-09T02:57:05.627Z,35.30
2023-04-09T02:58:05.624Z,31.40
2023-04-09T02:59:05.649Z,37.60
2023-04-09T03:00:05.635Z,35.20
2023-04-09T03:01:05.606Z,38.70
2023-04-09T03:02:05.706Z,40.10
2023-04-09T03:03:05.731Z,42.60
2023-04-09T03:04:05.630Z,41.50
2023-04-09T03:05:05.620Z,41.80
2023-04-09T03:06:05.558Z,42.30
2023-04-09T03:07:05.543Z,42.00
2023-04-09T03:08:05.539Z,42.90
2023-04-09T03:09:05.497Z,41.20
2023-04-09T03:10:05.486Z,41.40
2023-04-09T03:11:05.529Z,41.60
2023-04-09T03:12:05.490Z,44.60
2023-04-09T03:13:05.469Z,42.60
2023-04-09T03:14:05.439Z,41.10
2023-04-09T03:15:05.447Z,40.00
2023-04-09T03:16:05.476Z,38.30
2023-04-09T03:17:05.435Z,37.80
2023-04-09T03:18:05.544Z,40.70
2023-04-09T03:19:05.393Z,40.20
2023-04-09T03:20:05.390Z,38.90
2023-04-09T03:21:05.418Z,39.90
2023-04-09T03:22:05.367Z,38.00
2023-04-09T03:23:05.357Z,41.40
2023-04-09T03:24:05.342Z,37.70
2023-04-09T03:25:05.320Z,35.50
2023-04-09T03:26:05.308Z,36.20
2023-04-09T03:27:05.329Z,36.70
2023-04-09T03:28:05.315Z,33.90
2023-04-09T03:29:05.329Z,35.40
2023-04-09T03:30:05.268Z,34.40
2023-04-09T03:31:05.278Z,33.00
2023-04-09T03:32:05.244Z,30.50
2023-04-09T03:33:05.290Z,33.30
2023-04-09T03:34:05.239Z,32.20
2023-04-09T03:35:05.216Z,32.70
2023-04-09T03:36:05.289Z,35.40
2023-04-09T03:37:05.207Z,33.70
2023-04-09T03:38:05.176Z,36.20
2023-04-09T03:39:05.175Z,32.00
2023-04-09T03:40:05.170Z,33.40
2023-04-09T03:41:05.153Z,33.50
2023-04-09T03:42:05.168Z,31.90
2023-04-09T03:43:05.122Z,31.70
2023-04-09T03:44:05.107Z,32.40
2023-04-09T03:45:05.133Z,32.20
2023-04-09T03:46:05.148Z,32.90
2023-04-09T03:47:05.085Z,32.80
2023-04-09T03:48:05.134Z,32.90
2023-04-09T03:49:05.056Z,31.20
2023-04-09T03:50:05.070Z,31.70
2023-04-09T03:51:05.029Z,32.90
2023-04-09T03:52:05.025Z,30.70
2023-04-09T03:53:05.059Z,32.70
2023-04-09T03:54:05.058Z,32.40
2023-04-09T03:55:04.980Z,31.30
2023-04-09T03:56:04.973Z,32.00
2023-04-09T03:57:04.997Z,31.70
2023-04-09T03:58:04.976Z,31.20
2023-04-09T03:59:04.967Z,30.60
2023-04-09T04:00:04.983Z,33.60
2023-04-09T04:01:04.941Z,31.20
2023-04-09T04:02:05.044Z,30.40
2023-04-09T04:03:05.054Z,30.80
2023-04-09T04:04:05.072Z,32.50
2023-04-09T04:05:04.885Z,32.50
2023-04-09T04:06:04.887Z,33.80
2023-04-09T04:07:04.864Z,36.00
2023-04-09T04:08:04.840Z,30.60
2023-04-09T04:09:04.859Z,33.40
2023-04-09T04:10:04.849Z,33.70
2023-04-09T04:11:04.815Z,31.20
2023-04-09T04:12:04.829Z,33.80
2023-04-09T04:13:04.810Z,32.60
2023-04-09T04:14:04.774Z,35.10
2023-04-09T04:15:04.807Z,34.10
2023-04-09T04:16:04.781Z,31.20
2023-04-09T04:17:04.730Z,33.10
2023-04-09T04:18:04.758Z,35.70
2023-04-09T04:19:04.764Z,32.40
2023-04-09T04:20:04.714Z,33.20
2023-04-09T04:21:04.713Z,34.80
2023-04-09T04:22:04.683Z,34.40
2023-04-09T04:23:04.662Z,35.40
2023-04-09T04:24:04.694Z,33.20
2023-04-09T04:25:04.681Z,35.50
2023-04-09T04:26:04.676Z,37.60
2023-04-09T04:27:04.618Z,36.00
2023-04-09T04:28:04.613Z,33.60
2023-04-09T04:29:04.599Z,35.70
2023-04-09T04:30:04.633Z,35.00
2023-04-09T04:31:04.587Z,34.50
2023-04-09T04:32:04.690Z,35.20
2023-04-09T04:33:04.582Z,35.60
2023-04-09T04:34:04.546Z,34.40
2023-04-09T04:35:04.532Z,39.00
2023-04-09T04:36:04.571Z,35.20
2023-04-09T04:37:04.526Z,32.10
2023-04-09T04:38:04.527Z,31.60
2023-04-09T04:39:04.488Z,31.00
2023-04-09T04:40:04.562Z,30.10
2023-04-09T04:41:04.495Z,30.70
2023-04-09T04:42:04.497Z,30.90
2023-04-09T04:43:04.505Z,31.50
2023-04-09T04:44:04.432Z,31.70
2023-04-09T04:45:04.421Z,30.50
2023-04-09T04:46:04.455Z,33.70
2023-04-09T04:47:04.397Z,34.40
2023-04-09T04:48:04.429Z,48.70
2023-04-09T04:49:04.445Z,36.40
2023-04-09T04:50:04.368Z,43.90
2023-04-09T04:51:04.353Z,40.20
2023-04-09T04:52:04.353Z,56.80
2023-04-09T04:53:04.360Z,76.50
2023-04-09T04:54:04.334Z,95.20
2023-04-09T04:55:04.366Z,83.40
2023-04-09T04:56:04.306Z,130.60
2023-04-09T04:57:04.320Z,144.00
2023-04-09T04:58:04.306Z,137.50
2023-04-09T04:59:04.267Z,124.30
2023-04-09T05:00:04.288Z,126.30
2023-04-09T05:01:04.332Z,127.20
2023-04-09T05:02:04.294Z,139.60
2023-04-09T05:03:04.366Z,168.90
2023-04-09T05:04:04.360Z,139.80
2023-04-09T05:05:04.216Z,131.30
2023-04-09T05:06:04.225Z,123.50
2023-04-09T05:07:04.219Z,102.50
2023-04-09T05:08:04.167Z,98.20
2023-04-09T05:09:04.155Z,170.40
2023-04-09T05:10:04.192Z,135.30
2023-04-09T05:11:04.130Z,108.20
2023-04-09T05:12:04.120Z,112.80
2023-04-09T05:13:04.129Z,86.50
2023-04-09T05:14:04.158Z,164.50
2023-04-09T05:15:04.090Z,260.00
2023-04-09T05:16:04.108Z,154.80
2023-04-09T05:17:04.111Z,73.70
2023-04-09T05:18:04.048Z,172.40
2023-04-09T05:19:04.057Z,77.50
2023-04-09T05:20:04.061Z,85.00
2023-04-09T05:21:04.042Z,76.10
2023-04-09T05:22:04.031Z,77.80
2023-04-09T05:23:04.017Z,91.30
2023-04-09T05:24:03.984Z,68.20
2023-04-09T05:25:03.970Z,77.30
2023-04-09T05:26:04.051Z,75.80
2023-04-09T05:27:03.984Z,50.70
2023-04-09T05:28:03.958Z,79.10
2023-04-09T05:29:03.945Z,127.00
2023-04-09T05:30:03.915Z,138.10
2023-04-09T05:31:03.918Z,135.90
2023-04-09T05:32:03.984Z,126.60
2023-04-09T05:33:03.897Z,60.50
2023-04-09T05:34:03.882Z,72.10
2023-04-09T05:35:03.885Z,70.40
2023-04-09T05:36:03.905Z,53.80
2023-04-09T05:37:03.838Z,63.50
2023-04-09T05:38:03.891Z,180.30
2023-04-09T05:39:03.829Z,219.10
2023-04-09T05:40:03.821Z,135.90
2023-04-09T05:41:03.792Z,121.30
2023-04-09T05:42:03.797Z,95.50
2023-04-09T05:43:03.802Z,105.30
2023-04-09T05:44:03.860Z,50.70
2023-04-09T05:45:03.794Z,135.00
2023-04-09T05:46:03.786Z,112.70
2023-04-09T05:47:03.745Z,121.30
2023-04-09T05:48:03.802Z,139.30
2023-04-09T05:49:03.742Z,91.50
2023-04-09T05:50:03.746Z,97.90
2023-04-09T05:51:03.707Z,92.90
2023-04-09T05:52:03.688Z,55.70
2023-04-09T05:53:03.659Z,49.00
2023-04-09T05:54:03.657Z,74.00
2023-04-09T05:55:03.696Z,107.90
2023-04-09T05:56:03.699Z,150.90
2023-04-09T05:57:03.635Z,99.20
2023-04-09T05:58:03.611Z,92.90
2023-04-09T05:59:03.596Z,97.30
2023-04-09T06:00:03.621Z,140.60
2023-04-09T06:01:03.595Z,134.00
2023-04-09T06:02:03.738Z,120.10
2023-04-09T06:03:03.720Z,56.40
2023-04-09T06:04:04.029Z,59.70
2023-04-09T06:05:03.552Z,43.10
2023-04-09T06:06:03.544Z,57.20
2023-04-09T06:07:03.510Z,45.20
2023-04-09T06:08:03.541Z,49.50
2023-04-09T06:09:03.484Z,46.80
2023-04-09T06:10:03.485Z,64.70
2023-04-09T06:11:03.488Z,33.50
2023-04-09T06:12:03.459Z,37.00
2023-04-09T06:13:03.447Z,43.90
2023-04-09T06:14:03.496Z,41.50
2023-04-09T06:15:03.449Z,39.80
2023-04-09T06:16:03.427Z,41.10
2023-04-09T06:17:03.451Z,68.70
2023-04-09T06:18:03.420Z,48.40
2023-04-09T06:19:03.381Z,55.50
2023-04-09T06:20:03.414Z,69.10
2023-04-09T06:21:03.369Z,43.20
2023-04-09T06:22:03.344Z,78.80
2023-04-09T06:23:03.384Z,58.50
2023-04-09T06:24:03.322Z,67.60
2023-04-09T06:25:03.329Z,48.80
2023-04-09T06:26:03.378Z,91.20
2023-04-09T06:27:03.280Z,63.70
2023-04-09T06:28:03.300Z,55.90
2023-04-09T06:29:03.342Z,47.80
2023-04-09T06:30:03.271Z,61.20
2023-04-09T06:31:03.289Z,125.00
2023-04-09T06:32:03.423Z,73.90
2023-04-09T06:33:03.260Z,54.60
2023-04-09T06:34:03.214Z,56.40
2023-04-09T06:35:03.195Z,52.50
2023-04-09T06:36:03.214Z,38.00
2023-04-09T06:37:03.232Z,48.40
2023-04-09T06:38:03.178Z,42.30
2023-04-09T06:39:03.194Z,64.60
2023-04-09T06:40:03.145Z,49.30
2023-04-09T06:41:03.129Z,65.20
2023-04-09T06:42:03.123Z,65.70
2023-04-09T06:43:03.165Z,60.40
2023-04-09T06:44:03.091Z,52.40
2023-04-09T06:45:03.134Z,47.50
2023-04-09T06:46:03.135Z,64.30
2023-04-09T06:47:03.080Z,48.50
2023-04-09T06:48:03.111Z,35.70
2023-04-09T06:49:03.109Z,48.80
2023-04-09T06:50:03.036Z,41.20
2023-04-09T06:51:03.043Z,36.10
2023-04-09T06:52:03.114Z,54.10
2023-04-09T06:53:02.995Z,43.00
2023-04-09T06:54:03.095Z,72.50
2023-04-09T06:55:03.241Z,38.00
2023-04-09T06:56:02.955Z,36.40
2023-04-09T06:57:02.966Z,33.30
2023-04-09T06:58:02.953Z,42.00
2023-04-09T06:59:02.936Z,42.50
2023-04-09T07:00:02.913Z,33.80
2023-04-09T07:01:02.953Z,35.70
2023-04-09T07:02:02.955Z,40.60
2023-04-09T07:03:03.119Z,45.40
2023-04-09T07:04:02.973Z,38.60
2023-04-09T07:05:02.906Z,33.70
2023-04-09T07:06:02.851Z,41.60
2023-04-09T07:07:02.904Z,34.80
2023-04-09T07:08:02.824Z,34.90
2023-04-09T07:09:02.809Z,33.80
2023-04-09T07:10:02.828Z,40.10
2023-04-09T07:11:02.788Z,32.40
2023-04-09T07:12:02.798Z,33.60
2023-04-09T07:13:02.822Z,32.50
2023-04-09T07:14:02.767Z,34.50
2023-04-09T07:15:02.756Z,36.80
2023-04-09T07:16:02.780Z,31.50
2023-04-09T07:17:02.753Z,28.50
2023-04-09T07:18:02.810Z,28.00
2023-04-09T07:19:02.771Z,36.40
2023-04-09T07:20:02.703Z,29.70
2023-04-09T07:21:03.383Z,30.10
2023-04-09T07:22:02.696Z,27.10
2023-04-09T07:23:02.693Z,26.90
2023-04-09T07:24:02.644Z,26.30
2023-04-09T07:25:02.685Z,26.30
2023-04-09T07:26:02.623Z,28.80
2023-04-09T07:27:02.623Z,28.00
2023-04-09T07:28:02.632Z,28.70
2023-04-09T07:29:02.623Z,27.60
2023-04-09T07:30:02.591Z,25.90
2023-04-09T07:31:02.625Z,27.10
2023-04-09T07:32:02.557Z,26.10
2023-04-09T07:33:02.607Z,25.80
2023-04-09T07:34:02.593Z,25.90
2023-04-09T07:35:02.520Z,25.30
2023-04-09T07:36:02.579Z,25.00
2023-04-09T07:37:02.541Z,22.30
2023-04-09T07:38:02.514Z,22.90
2023-04-09T07:39:02.489Z,21.90
2023-04-09T07:40:02.513Z,21.50
2023-04-09T07:41:02.465Z,22.10
2023-04-09T07:42:02.444Z,21.60
2023-04-09T07:43:02.430Z,21.20
2023-04-09T07:44:02.461Z,21.80
2023-04-09T07:45:02.438Z,22.30
2023-04-09T07:46:02.413Z,20.70
2023-04-09T07:47:02.512Z,20.90
2023-04-09T07:48:02.778Z,20.20
2023-04-09T07:49:02.412Z,21.10
2023-04-09T07:50:02.585Z,21.20
2023-04-09T07:51:02.353Z,20.70
2023-04-09T07:52:02.354Z,19.70
2023-04-09T07:53:02.346Z,20.40
2023-04-09T07:54:02.345Z,20.30
2023-04-09T07:55:02.305Z,19.50
2023-04-09T07:56:02.330Z,19.20
2023-04-09T07:57:02.306Z,20.40
2023-04-09T07:58:02.264Z,20.00
2023-04-09T07:59:02.273Z,19.40
2023-04-09T08:00:02.253Z,19.60
2023-04-09T08:01:02.262Z,19.00
2023-04-09T08:02:02.287Z,19.60
2023-04-09T08:03:02.412Z,20.60
2023-04-09T08:04:02.512Z,19.60
2023-04-09T08:05:02.287Z,18.80
2023-04-09T08:06:02.206Z,18.40
2023-04-09T08:07:02.220Z,18.70
2023-04-09T08:08:02.178Z,19.40
2023-04-09T08:09:02.162Z,18.60
2023-04-09T08:10:02.162Z,19.00
2023-04-09T08:11:02.194Z,18.80
2023-04-09T08:12:02.139Z,18.40
2023-04-09T08:13:02.162Z,18.10
2023-04-09T08:14:02.101Z,19.20
2023-04-09T08:15:02.100Z,18.50
2023-04-09T08:16:02.137Z,18.80
2023-04-09T08:17:02.055Z,18.90
2023-04-09T08:18:02.171Z,19.80
2023-04-09T08:19:02.082Z,20.10
2023-04-09T08:20:02.053Z,19.70
2023-04-09T08:21:02.012Z,19.80
2023-04-09T08:22:02.085Z,20.80
2023-04-09T08:23:02.005Z,19.10
2023-04-09T08:24:01.999Z,20.60
2023-04-09T08:25:02.964Z,20.30
2023-04-09T08:26:01.959Z,20.20
2023-04-09T08:27:01.953Z,19.50
2023-04-09T08:28:01.967Z,19.10
2023-04-09T08:29:01.939Z,19.20
2023-04-09T08:30:01.973Z,20.20
2023-04-09T08:31:01.934Z,19.30
2023-04-09T08:32:01.934Z,19.00
2023-04-09T08:33:02.044Z,18.60
2023-04-09T08:34:01.930Z,19.20
2023-04-09T08:35:01.867Z,19.90
2023-04-09T08:36:03.328Z,19.60
2023-04-09T08:37:01.878Z,20.00
2023-04-09T08:38:01.830Z,19.90
2023-04-09T08:39:01.817Z,19.20
2023-04-09T08:40:01.811Z,19.80
2023-04-09T08:41:01.826Z,19.10
2023-04-09T08:42:01.829Z,18.40
2023-04-09T08:43:01.813Z,17.60
2023-04-09T08:44:01.751Z,17.30
2023-04-09T08:45:01.805Z,17.40
2023-04-09T08:46:01.775Z,18.30
2023-04-09T08:47:01.870Z,17.10
2023-04-09T08:48:01.869Z,16.60
2023-04-09T08:49:01.697Z,16.10
2023-04-09T08:50:01.769Z,15.30
2023-04-09T08:51:01.677Z,14.90
2023-04-09T08:52:01.678Z,15.80
2023-04-09T08:53:01.669Z,15.00
2023-04-09T08:54:04.288Z,15.60
2023-04-09T08:55:01.713Z,15.40
2023-04-09T08:56:01.660Z,15.20
2023-04-09T08:57:01.626Z,16.40
2023-04-09T08:58:01.605Z,15.90
2023-04-09T08:59:01.638Z,15.00
2023-04-09T09:00:01.577Z,15.10
2023-04-09T09:01:01.644Z,15.30
2023-04-09T09:02:01.743Z,15.80
2023-04-09T09:03:01.722Z,15.40
2023-04-09T09:04:01.598Z,15.90
2023-04-09T09:05:01.644Z,15.60
2023-04-09T09:06:01.508Z,15.40
2023-04-09T09:07:01.494Z,16.00
2023-04-09T09:08:01.492Z,16.30
2023-04-09T09:09:01.498Z,17.70
2023-04-09T09:10:01.481Z,17.90
2023-04-09T09:11:01.446Z,17.90
2023-04-09T09:12:09.123Z,17.80
2023-04-09T09:13:01.426Z,18.60
2023-04-09T09:14:01.416Z,17.00
2023-04-09T09:15:01.442Z,16.30
2023-04-09T09:16:01.391Z,14.80
2023-04-09T09:17:01.424Z,17.10
2023-04-09T09:18:01.415Z,17.80
2023-04-09T09:19:01.381Z,16.90
2023-04-09T09:20:01.411Z,17.40
2023-04-09T09:21:01.373Z,17.40
2023-04-09T09:22:01.335Z,16.90
2023-04-09T09:23:01.314Z,17.00
2023-04-09T09:24:01.340Z,17.00
2023-04-09T09:25:01.336Z,16.60
2023-04-09T09:26:01.293Z,17.70
2023-04-09T09:27:01.313Z,16.10
2023-04-09T09:28:01.272Z,16.30
2023-04-09T09:29:01.285Z,16.50
2023-04-09T09:30:01.267Z,17.30
2023-04-09T09:31:01.258Z,16.60
2023-04-09T09:32:01.274Z,16.80
2023-04-09T09:33:01.244Z,16.60
2023-04-09T09:34:01.190Z,17.10
2023-04-09T09:35:01.181Z,15.70
2023-04-09T09:36:01.221Z,16.60
2023-04-09T09:37:01.166Z,16.30
2023-04-09T09:38:01.159Z,15.60
2023-04-09T09:39:01.202Z,15.10
2023-04-09T09:40:01.149Z,15.80
2023-04-09T09:41:01.140Z,15.80
2023-04-09T09:42:01.106Z,15.70
2023-04-09T09:43:01.131Z,16.10
2023-04-09T09:44:01.101Z,16.00
2023-04-09T09:45:01.145Z,15.80
2023-04-09T09:46:01.075Z,15.30
2023-04-09T09:47:01.090Z,15.60
2023-04-09T09:48:01.070Z,15.90
2023-04-09T09:49:01.038Z,16.30
2023-04-09T09:50:01.013Z,16.70
2023-04-09T09:51:01.016Z,17.10
2023-04-09T09:52:00.997Z,16.70
2023-04-09T09:53:01.007Z,16.70
2023-04-09T09:54:00.981Z,17.00
2023-04-09T09:55:00.987Z,16.30
2023-04-09T09:56:00.947Z,16.80
2023-04-09T09:57:00.991Z,17.00
2023-04-09T09:58:00.971Z,16.40
2023-04-09T09:59:00.953Z,16.30
2023-04-09T10:00:00.955Z,16.30
2023-04-09T10:01:00.928Z,16.40
2023-04-09T10:02:01.095Z,16.80
2023-04-09T10:03:01.006Z,16.60
2023-04-09T10:04:00.886Z,16.20
2023-04-09T10:05:00.896Z,16.90
2023-04-09T10:06:00.856Z,17.00
2023-04-09T10:07:00.875Z,16.60
2023-04-09T10:08:00.813Z,18.20
2023-04-09T10:09:00.836Z,17.70
2023-04-09T10:10:00.796Z,18.70
2023-04-09T10:11:00.793Z,18.70
2023-04-09T10:12:00.805Z,18.30
2023-04-09T10:13:00.761Z,19.00
2023-04-09T10:14:00.764Z,18.00
2023-04-09T10:15:00.832Z,18.10
2023-04-09T10:16:00.789Z,16.80
2023-04-09T10:17:00.729Z,16.50
2023-04-09T10:18:00.734Z,17.50
2023-04-09T10:19:00.689Z,16.90
2023-04-09T10:20:00.707Z,17.30
2023-04-09T10:21:00.797Z,16.90
2023-04-09T10:22:00.660Z,17.30
2023-04-09T10:23:00.667Z,16.20
2023-04-09T10:24:00.634Z,15.80
2023-04-09T10:25:00.668Z,15.40
2023-04-09T10:26:00.612Z,15.50
2023-04-09T10:27:00.615Z,14.00
2023-04-09T10:28:00.622Z,13.70
2023-04-09T10:29:00.592Z,14.50
2023-04-09T10:30:00.605Z,14.50
2023-04-09T10:31:00.768Z,14.90
2023-04-09T10:32:00.574Z,14.90
2023-04-09T10:33:00.581Z,15.60
2023-04-09T10:34:00.553Z,14.80
2023-04-09T10:35:00.550Z,15.20
2023-04-09T10:36:00.558Z,15.90
2023-04-09T10:37:00.488Z,16.00
2023-04-09T10:38:00.484Z,15.70
2023-04-09T10:39:00.473Z,16.80
2023-04-09T10:40:00.556Z,16.90
2023-04-09T10:41:00.444Z,16.00
2023-04-09T10:42:00.440Z,16.50
2023-04-09T10:43:00.430Z,17.10
2023-04-09T10:44:00.435Z,16.50
2023-04-09T10:45:00.451Z,16.60
2023-04-09T10:46:00.445Z,15.90
2023-04-09T10:47:00.429Z,15.80
2023-04-09T10:48:00.435Z,15.70
2023-04-09T10:49:00.359Z,16.30
2023-04-09T10:50:00.347Z,16.30
2023-04-09T10:51:00.351Z,16.80
2023-04-09T10:52:00.359Z,16.20
2023-04-09T10:53:00.385Z,16.70
2023-04-09T10:54:00.300Z,17.20
2023-04-09T10:55:00.302Z,16.10
2023-04-09T10:56:00.305Z,17.20
2023-04-09T10:57:00.277Z,16.30
2023-04-09T10:58:00.292Z,16.40
2023-04-09T10:59:00.246Z,15.80
2023-04-09T11:00:00.236Z,16.50
2023-04-09T11:01:00.256Z,17.60
2023-04-09T11:02:00.897Z,16.80
2023-04-09T11:03:00.366Z,17.20
2023-04-09T11:04:00.332Z,16.70
2023-04-09T11:05:00.401Z,16.30
2023-04-09T11:06:00.184Z,16.40
2023-04-09T11:07:00.159Z,16.20
2023-04-09T11:08:00.195Z,15.70
2023-04-09T11:09:00.166Z,16.20
2023-04-09T11:10:00.175Z,16.40
2023-04-09T11:11:00.172Z,16.00
2023-04-09T11:12:00.110Z,15.90
2023-04-09T11:13:00.096Z,16.40
2023-04-09T11:14:00.141Z,15.50
2023-04-09T11:15:00.073Z,15.60
2023-04-09T11:16:00.148Z,15.30
2023-04-09T11:17:00.043Z,15.40
2023-04-09T11:18:00.179Z,14.70
2023-04-09T11:19:00.057Z,15.50
2023-04-09T11:20:00.062Z,14.50
2023-04-09T11:21:00.026Z,14.70
2023-04-09T11:21:59.987Z,14.80
2023-04-09T11:23:00.040Z,14.90
2023-04-09T11:23:59.960Z,15.30
2023-04-09T11:24:59.963Z,15.00
2023-04-09T11:25:59.961Z,14.20
2023-04-09T11:26:59.967Z,13.50
2023-04-09T11:27:59.916Z,13.50
2023-04-09T11:28:59.944Z,13.70
2023-04-09T11:29:59.898Z,14.30
2023-04-09T11:30:59.916Z,14.80
2023-04-09T11:31:59.932Z,14.40
2023-04-09T11:32:59.971Z,13.70
2023-04-09T11:33:59.849Z,13.30
2023-04-09T11:34:59.876Z,12.30
2023-04-09T11:35:59.908Z,13.20
2023-04-09T11:36:59.862Z,13.20
2023-04-09T11:37:59.843Z,13.50
2023-04-09T11:38:59.847Z,13.60
2023-04-09T11:39:59.784Z,13.10
2023-04-09T11:40:59.780Z,13.40
2023-04-09T11:41:59.779Z,13.60
2023-04-09T11:42:59.752Z,13.60
2023-04-09T11:43:59.779Z,13.80
2023-04-09T11:44:59.748Z,13.70
2023-04-09T11:45:59.739Z,13.50
2023-04-09T11:46:59.759Z,13.30
2023-04-09T11:47:59.762Z,13.60
2023-04-09T11:48:59.722Z,13.70
2023-04-09T11:49:59.669Z,13.60
2023-04-09T11:50:59.691Z,13.00
2023-04-09T11:51:59.680Z,12.80
2023-04-09T11:52:59.646Z,12.60
2023-04-09T11:53:59.654Z,12.10
2023-04-09T11:54:59.616Z,12.80
2023-04-09T11:55:59.622Z,13.20
2023-04-09T11:56:59.685Z,13.40
2023-04-09T11:57:59.595Z,13.90
2023-04-09T11:58:59.607Z,13.50
2023-04-09T11:59:59.579Z,13.80
2023-04-09T12:00:59.549Z,13.60
2023-04-09T12:01:59.617Z,13.40
2023-04-09T12:02:59.737Z,14.50
2023-04-09T12:03:59.683Z,14.20
2023-04-09T12:04:59.561Z,13.60
2023-04-09T12:05:59.533Z,14.20
2023-04-09T12:06:59.497Z,14.20
2023-04-09T12:07:59.489Z,14.20
2023-04-09T12:08:59.489Z,14.20
2023-04-09T12:09:59.457Z,14.00
2023-04-09T12:10:59.463Z,14.80
2023-04-09T12:11:59.475Z,13.90
2023-04-09T12:12:59.416Z,13.80
2023-04-09T12:13:59.411Z,13.90
2023-04-09T12:14:59.419Z,14.40
2023-04-09T12:15:59.396Z,14.70
2023-04-09T12:16:59.460Z,15.00
2023-04-09T12:17:59.496Z,14.20
2023-04-09T12:18:59.371Z,14.00
2023-04-09T12:19:59.369Z,13.40
2023-04-09T12:20:59.364Z,14.20
2023-04-09T12:21:59.324Z,14.80
2023-04-09T12:22:59.354Z,14.40
2023-04-09T12:23:59.343Z,14.30
2023-04-09T12:24:59.283Z,13.50
2023-04-09T12:25:59.294Z,13.20
2023-04-09T12:26:59.297Z,13.10
2023-04-09T12:27:59.264Z,13.50
2023-04-09T12:28:59.242Z,14.00
2023-04-09T12:29:59.253Z,13.90
2023-04-09T12:30:59.256Z,13.50
2023-04-09T12:31:59.252Z,14.80
2023-04-09T12:32:59.245Z,14.60
2023-04-09T12:33:59.204Z,14.60
2023-04-09T12:34:59.171Z,15.20
2023-04-09T12:35:59.258Z,14.30
2023-04-09T12:36:59.172Z,14.80
2023-04-09T12:37:59.146Z,14.40
2023-04-09T12:38:59.167Z,14.20
2023-04-09T12:39:59.145Z,14.20
2023-04-09T12:40:59.109Z,14.30
2023-04-09T12:41:59.120Z,13.40
2023-04-09T12:42:59.111Z,14.60
2023-04-09T12:43:59.077Z,13.90
2023-04-09T12:44:59.125Z,14.00
2023-04-09T12:45:59.099Z,14.10
2023-04-09T12:46:59.036Z,13.90
2023-04-09T12:47:59.060Z,14.00
2023-04-09T12:48:59.042Z,14.50
2023-04-09T12:49:59.017Z,14.90
2023-04-09T12:50:59.039Z,14.20